AUA743Y LOWW-LATI
Flight info
| Callsign | AUA743Y |
|---|---|
| Flight time | 1h 10m |
| Altitude | 35000 |
| Route | ARSIN DCT NALOX DCT OSDUK DCT VIBOP DCT AKIKA DCT INLOT |
| Aircraft | A320/M-SDE3FGHIRWY/LB1 |
Departure
| Time | 2026-04-30 10:54 |
|---|---|
| Airport | Vienna International Airport (LOWW) |
Arrival
| Time | 2026-04-30 12:04 |
|---|---|
| Airport | Tirana International Airport Mother Teresa (LATI) |
| Time | Latitude | Longitude | Altitude | Speed | Heading |
|---|---|---|---|---|---|
| 2026-04-30 10:28 | 48.11535 | 16.56787 | 610 ft | 0 kts | 207° |
| 2026-04-30 10:44 | 48.11530 | 16.56784 | 610 ft | 1 kts | 207° |
| 2026-04-30 10:45 | 48.11520 | 16.56776 | 618 ft | 3 kts | 207° |
| 2026-04-30 10:45 | 48.11498 | 16.56759 | 613 ft | 1 kts | 207° |
| 2026-04-30 10:45 | 48.11480 | 16.56753 | 615 ft | 4 kts | 178° |
| 2026-04-30 10:45 | 48.11448 | 16.56790 | 616 ft | 7 kts | 139° |
| 2026-04-30 10:46 | 48.11403 | 16.56820 | 612 ft | 9 kts | 181° |
| 2026-04-30 10:46 | 48.11346 | 16.56856 | 610 ft | 11 kts | 122° |
| 2026-04-30 10:46 | 48.11307 | 16.56974 | 614 ft | 15 kts | 116° |
| 2026-04-30 10:46 | 48.11257 | 16.57128 | 619 ft | 18 kts | 116° |
| 2026-04-30 10:47 | 48.11200 | 16.57301 | 610 ft | 20 kts | 116° |
| 2026-04-30 10:47 | 48.11134 | 16.57508 | 619 ft | 23 kts | 115° |
| 2026-04-30 10:47 | 48.11065 | 16.57722 | 616 ft | 19 kts | 117° |
| 2026-04-30 10:47 | 48.10961 | 16.57829 | 610 ft | 18 kts | 163° |
| 2026-04-30 10:48 | 48.10844 | 16.57879 | 612 ft | 16 kts | 164° |
| 2026-04-30 10:48 | 48.10759 | 16.57915 | 612 ft | 16 kts | 164° |
| 2026-04-30 10:48 | 48.10753 | 16.57917 | 618 ft | 16 kts | 164° |
| 2026-04-30 10:49 | 48.10732 | 16.57926 | 613 ft | 17 kts | 164° |
| 2026-04-30 10:49 | 48.10601 | 16.57981 | 617 ft | 22 kts | 163° |
| 2026-04-30 10:49 | 48.10434 | 16.58054 | 621 ft | 28 kts | 163° |
| 2026-04-30 10:49 | 48.10237 | 16.58138 | 619 ft | 30 kts | 164° |
| 2026-04-30 10:50 | 48.10032 | 16.58224 | 622 ft | 31 kts | 165° |
| 2026-04-30 10:50 | 48.09825 | 16.58311 | 616 ft | 30 kts | 164° |
| 2026-04-30 10:50 | 48.09619 | 16.58397 | 616 ft | 31 kts | 164° |
| 2026-04-30 10:50 | 48.09408 | 16.58487 | 619 ft | 32 kts | 164° |
| 2026-04-30 10:51 | 48.09199 | 16.58573 | 615 ft | 31 kts | 164° |
| 2026-04-30 10:51 | 48.09000 | 16.58659 | 616 ft | 19 kts | 164° |
| 2026-04-30 10:51 | 48.08883 | 16.58707 | 615 ft | 14 kts | 162° |
| 2026-04-30 10:51 | 48.08873 | 16.58714 | 613 ft | 14 kts | 157° |
| 2026-04-30 10:52 | 48.08851 | 16.58728 | 614 ft | 13 kts | 155° |
| 2026-04-30 10:52 | 48.08796 | 16.58823 | 613 ft | 11 kts | 107° |
| 2026-04-30 10:52 | 48.08790 | 16.58933 | 610 ft | 10 kts | 85° |
| 2026-04-30 10:52 | 48.08821 | 16.59036 | 611 ft | 12 kts | 51° |
| 2026-04-30 10:53 | 48.08890 | 16.59112 | 622 ft | 13 kts | 19° |
| 2026-04-30 10:53 | 48.08981 | 16.59086 | 618 ft | 16 kts | 345° |
| 2026-04-30 10:53 | 48.09253 | 16.58973 | 610 ft | 74 kts | 343° |
| 2026-04-30 10:53 | 48.09952 | 16.58676 | 614 ft | 132 kts | 344° |
| 2026-04-30 10:54 | 48.10944 | 16.58250 | 894 ft | 152 kts | 346° |
| 2026-04-30 10:54 | 48.11951 | 16.57812 | 1681 ft | 150 kts | 346° |
| 2026-04-30 10:54 | 48.12997 | 16.57369 | 2253 ft | 166 kts | 346° |
| 2026-04-30 10:54 | 48.13520 | 16.57149 | 2428 ft | 176 kts | 345° |
| 2026-04-30 10:55 | 48.14519 | 16.56355 | 2703 ft | 199 kts | 315° |
| 2026-04-30 10:55 | 48.15060 | 16.54320 | 2985 ft | 231 kts | 272° |
| 2026-04-30 10:55 | 48.14526 | 16.51936 | 3385 ft | 260 kts | 231° |
| 2026-04-30 10:55 | 48.13062 | 16.50238 | 4110 ft | 273 kts | 207° |
| 2026-04-30 10:56 | 48.11322 | 16.49056 | 5022 ft | 277 kts | 201° |
| 2026-04-30 10:56 | 48.11118 | 16.48930 | 5121 ft | 278 kts | 201° |
| 2026-04-30 10:56 | 48.09322 | 16.47805 | 5990 ft | 282 kts | 200° |
| 2026-04-30 10:56 | 48.07396 | 16.47255 | 6830 ft | 284 kts | 176° |
| 2026-04-30 10:57 | 48.05437 | 16.47645 | 7638 ft | 286 kts | 167° |
| 2026-04-30 10:57 | 48.03459 | 16.48120 | 8470 ft | 290 kts | 170° |
| 2026-04-30 10:57 | 48.03263 | 16.48160 | 8552 ft | 291 kts | 170° |
| 2026-04-30 10:58 | 48.02426 | 16.48323 | 8889 ft | 292 kts | 171° |
| 2026-04-30 10:58 | 48.00392 | 16.48682 | 9732 ft | 296 kts | 171° |
| 2026-04-30 10:58 | 47.98317 | 16.48867 | 10521 ft | 302 kts | 182° |
| 2026-04-30 10:58 | 47.96230 | 16.48336 | 11219 ft | 308 kts | 197° |
| 2026-04-30 10:59 | 47.94249 | 16.47079 | 11907 ft | 315 kts | 208° |
| 2026-04-30 10:59 | 47.92238 | 16.45509 | 12108 ft | 338 kts | 206° |
| 2026-04-30 10:59 | 47.89971 | 16.44215 | 12285 ft | 361 kts | 194° |
| 2026-04-30 10:59 | 47.87438 | 16.43577 | 12621 ft | 375 kts | 182° |
| 2026-04-30 11:00 | 47.84819 | 16.43688 | 13227 ft | 379 kts | 171° |
| 2026-04-30 11:00 | 47.82267 | 16.44489 | 13880 ft | 382 kts | 163° |
| 2026-04-30 11:00 | 47.79688 | 16.45506 | 14532 ft | 385 kts | 163° |
| 2026-04-30 11:00 | 47.77083 | 16.46529 | 15123 ft | 389 kts | 163° |
| 2026-04-30 11:01 | 47.74452 | 16.47562 | 15723 ft | 393 kts | 163° |
| 2026-04-30 11:01 | 47.71799 | 16.48610 | 16314 ft | 397 kts | 163° |
| 2026-04-30 11:01 | 47.69133 | 16.49746 | 16887 ft | 400 kts | 158° |
| 2026-04-30 11:01 | 47.66616 | 16.51506 | 17464 ft | 400 kts | 146° |
| 2026-04-30 11:02 | 47.64382 | 16.53957 | 18034 ft | 400 kts | 134° |
| 2026-04-30 11:02 | 47.62522 | 16.57009 | 18584 ft | 399 kts | 122° |
| 2026-04-30 11:02 | 47.61105 | 16.60526 | 19119 ft | 397 kts | 111° |
| 2026-04-30 11:02 | 47.60003 | 16.64277 | 19646 ft | 399 kts | 109° |
| 2026-04-30 11:03 | 47.58684 | 16.67929 | 20179 ft | 406 kts | 121° |
| 2026-04-30 11:03 | 47.56820 | 16.71117 | 20702 ft | 415 kts | 134° |
| 2026-04-30 11:03 | 47.54462 | 16.73662 | 21214 ft | 423 kts | 148° |
| 2026-04-30 11:04 | 47.48779 | 16.76147 | 22168 ft | 436 kts | 174° |
| 2026-04-30 11:04 | 47.45740 | 16.76433 | 22639 ft | 439 kts | 174° |
| 2026-04-30 11:04 | 47.42681 | 16.76719 | 23095 ft | 442 kts | 174° |
| 2026-04-30 11:04 | 47.39603 | 16.77004 | 23526 ft | 445 kts | 175° |
| 2026-04-30 11:05 | 47.36508 | 16.77289 | 23964 ft | 447 kts | 174° |
| 2026-04-30 11:05 | 47.33388 | 16.77585 | 24328 ft | 450 kts | 174° |
| 2026-04-30 11:05 | 47.30260 | 16.77890 | 24680 ft | 452 kts | 174° |
| 2026-04-30 11:05 | 47.27106 | 16.78198 | 25051 ft | 454 kts | 174° |
| 2026-04-30 11:06 | 47.23944 | 16.78507 | 25387 ft | 456 kts | 174° |
| 2026-04-30 11:06 | 47.20767 | 16.78816 | 25724 ft | 459 kts | 174° |
| 2026-04-30 11:06 | 47.17576 | 16.79120 | 26053 ft | 461 kts | 174° |
| 2026-04-30 11:06 | 47.14363 | 16.79424 | 26387 ft | 462 kts | 174° |
| 2026-04-30 11:07 | 47.11144 | 16.79722 | 26703 ft | 464 kts | 175° |
| 2026-04-30 11:07 | 47.07911 | 16.80019 | 27019 ft | 466 kts | 175° |
| 2026-04-30 11:07 | 47.04705 | 16.80317 | 27324 ft | 468 kts | 174° |
| 2026-04-30 11:07 | 47.01445 | 16.80628 | 27622 ft | 470 kts | 174° |
| 2026-04-30 11:08 | 46.98177 | 16.80942 | 27911 ft | 472 kts | 174° |
| 2026-04-30 11:08 | 46.94888 | 16.81257 | 28187 ft | 474 kts | 175° |
| 2026-04-30 11:08 | 46.91611 | 16.81802 | 28457 ft | 474 kts | 167° |
| 2026-04-30 11:08 | 46.88427 | 16.83039 | 28714 ft | 473 kts | 158° |
| 2026-04-30 11:09 | 46.85411 | 16.84949 | 28963 ft | 472 kts | 149° |
| 2026-04-30 11:09 | 46.82639 | 16.87498 | 29200 ft | 470 kts | 140° |
| 2026-04-30 11:09 | 46.80126 | 16.90546 | 29427 ft | 470 kts | 136° |
| 2026-04-30 11:09 | 46.77643 | 16.93655 | 29711 ft | 471 kts | 136° |
| 2026-04-30 11:10 | 46.75149 | 16.96750 | 30046 ft | 471 kts | 136° |
| 2026-04-30 11:10 | 46.72645 | 16.99837 | 30358 ft | 470 kts | 137° |
| 2026-04-30 11:10 | 46.70148 | 17.02907 | 30640 ft | 470 kts | 137° |
| 2026-04-30 11:10 | 46.67649 | 17.05981 | 30894 ft | 470 kts | 137° |
| 2026-04-30 11:11 | 46.65992 | 17.08021 | 31060 ft | 471 kts | 137° |
| 2026-04-30 11:11 | 46.63493 | 17.11101 | 31313 ft | 471 kts | 137° |
| 2026-04-30 11:11 | 46.60990 | 17.14185 | 31560 ft | 471 kts | 137° |
| 2026-04-30 11:11 | 46.58485 | 17.17266 | 31801 ft | 472 kts | 137° |
| 2026-04-30 11:12 | 46.55976 | 17.20346 | 32069 ft | 472 kts | 137° |
| 2026-04-30 11:12 | 46.53462 | 17.23430 | 32288 ft | 474 kts | 137° |
| 2026-04-30 11:12 | 46.50944 | 17.26521 | 32521 ft | 474 kts | 137° |
| 2026-04-30 11:12 | 46.48421 | 17.29614 | 32766 ft | 475 kts | 138° |
| 2026-04-30 11:13 | 46.45893 | 17.32708 | 32966 ft | 476 kts | 138° |
| 2026-04-30 11:13 | 46.43355 | 17.35802 | 33197 ft | 477 kts | 138° |
| 2026-04-30 11:13 | 46.40811 | 17.38896 | 33441 ft | 478 kts | 139° |
| 2026-04-30 11:13 | 46.38260 | 17.41997 | 33691 ft | 478 kts | 139° |
| 2026-04-30 11:14 | 46.35714 | 17.45088 | 33933 ft | 478 kts | 139° |
| 2026-04-30 11:14 | 46.33161 | 17.48187 | 34203 ft | 479 kts | 139° |
| 2026-04-30 11:14 | 46.30610 | 17.51284 | 34456 ft | 479 kts | 139° |
| 2026-04-30 11:14 | 46.28060 | 17.54374 | 34659 ft | 479 kts | 139° |
| 2026-04-30 11:15 | 46.25505 | 17.57465 | 34876 ft | 479 kts | 139° |
| 2026-04-30 11:15 | 46.22948 | 17.60552 | 35086 ft | 479 kts | 139° |
| 2026-04-30 11:15 | 46.20392 | 17.63633 | 35271 ft | 479 kts | 139° |
| 2026-04-30 11:16 | 46.15250 | 17.69829 | 35395 ft | 482 kts | 139° |
| 2026-04-30 11:16 | 46.10095 | 17.76030 | 35401 ft | 483 kts | 140° |
| 2026-04-30 11:17 | 46.04935 | 17.82218 | 35384 ft | 482 kts | 140° |
| 2026-04-30 11:17 | 45.99773 | 17.88386 | 35381 ft | 482 kts | 140° |
| 2026-04-30 11:18 | 45.94639 | 17.94506 | 35369 ft | 482 kts | 140° |
| 2026-04-30 11:18 | 45.86872 | 18.03731 | 35383 ft | 483 kts | 140° |
| 2026-04-30 11:19 | 45.81678 | 18.09884 | 35373 ft | 484 kts | 140° |
| 2026-04-30 11:19 | 45.76151 | 18.15358 | 35371 ft | 483 kts | 153° |
| 2026-04-30 11:20 | 45.70210 | 18.19884 | 35349 ft | 484 kts | 153° |
| 2026-04-30 11:20 | 45.64267 | 18.24410 | 35354 ft | 484 kts | 153° |
| 2026-04-30 11:21 | 45.58319 | 18.28941 | 35361 ft | 484 kts | 153° |
| 2026-04-30 11:21 | 45.52403 | 18.33422 | 35360 ft | 485 kts | 153° |
| 2026-04-30 11:22 | 45.46442 | 18.37923 | 35339 ft | 485 kts | 153° |
| 2026-04-30 11:22 | 45.40477 | 18.42426 | 35348 ft | 485 kts | 153° |
| 2026-04-30 11:23 | 45.34514 | 18.46924 | 35348 ft | 485 kts | 153° |
| 2026-04-30 11:24 | 45.25548 | 18.53651 | 35354 ft | 485 kts | 153° |
| 2026-04-30 11:24 | 45.19577 | 18.58121 | 35351 ft | 486 kts | 153° |
| 2026-04-30 11:25 | 45.10608 | 18.64803 | 35347 ft | 486 kts | 153° |
| 2026-04-30 11:26 | 44.98504 | 18.73244 | 35336 ft | 483 kts | 165° |
| 2026-04-30 11:26 | 44.92028 | 18.75685 | 35340 ft | 481 kts | 168° |
| 2026-04-30 11:27 | 44.85546 | 18.78059 | 35334 ft | 482 kts | 168° |
| 2026-04-30 11:27 | 44.79061 | 18.80450 | 35322 ft | 482 kts | 168° |
| 2026-04-30 11:28 | 44.69337 | 18.84036 | 35339 ft | 481 kts | 168° |
| 2026-04-30 11:29 | 44.62864 | 18.86415 | 35345 ft | 481 kts | 168° |
| 2026-04-30 11:29 | 44.53149 | 18.89961 | 35327 ft | 480 kts | 169° |
| 2026-04-30 11:30 | 44.43455 | 18.93488 | 35337 ft | 479 kts | 169° |
| 2026-04-30 11:31 | 44.37003 | 18.95840 | 35325 ft | 479 kts | 169° |
| 2026-04-30 11:31 | 44.30553 | 18.98181 | 35331 ft | 479 kts | 169° |
| 2026-04-30 11:32 | 44.24102 | 19.00505 | 35326 ft | 479 kts | 169° |
| 2026-04-30 11:32 | 44.17643 | 19.02830 | 35326 ft | 479 kts | 169° |
| 2026-04-30 11:33 | 44.08011 | 19.06303 | 35302 ft | 479 kts | 169° |
| 2026-04-30 11:33 | 44.01510 | 19.08638 | 35306 ft | 479 kts | 170° |
| 2026-04-30 11:34 | 43.95094 | 19.10928 | 35280 ft | 479 kts | 170° |
| 2026-04-30 11:34 | 43.88636 | 19.13238 | 35300 ft | 479 kts | 170° |
| 2026-04-30 11:35 | 43.82192 | 19.15535 | 35306 ft | 478 kts | 170° |
| 2026-04-30 11:35 | 43.75747 | 19.17825 | 35311 ft | 478 kts | 171° |
| 2026-04-30 11:36 | 43.69310 | 19.20113 | 35301 ft | 477 kts | 171° |
| 2026-04-30 11:36 | 43.62879 | 19.22392 | 35301 ft | 477 kts | 171° |
| 2026-04-30 11:37 | 43.56452 | 19.24660 | 35299 ft | 477 kts | 171° |
| 2026-04-30 11:37 | 43.50028 | 19.26927 | 35291 ft | 476 kts | 172° |
| 2026-04-30 11:38 | 43.43599 | 19.29195 | 35294 ft | 476 kts | 172° |
| 2026-04-30 11:38 | 43.37178 | 19.31443 | 35298 ft | 476 kts | 172° |
| 2026-04-30 11:39 | 43.30744 | 19.33689 | 35271 ft | 476 kts | 172° |
| 2026-04-30 11:39 | 43.24324 | 19.35929 | 35284 ft | 476 kts | 172° |
| 2026-04-30 11:40 | 43.17911 | 19.38170 | 35285 ft | 476 kts | 172° |
| 2026-04-30 11:40 | 43.11487 | 19.40410 | 35295 ft | 476 kts | 172° |
| 2026-04-30 11:41 | 43.05067 | 19.42635 | 35298 ft | 476 kts | 172° |
| 2026-04-30 11:41 | 42.98645 | 19.44855 | 35295 ft | 476 kts | 172° |
| 2026-04-30 11:42 | 42.92271 | 19.47059 | 35256 ft | 475 kts | 173° |
| 2026-04-30 11:42 | 42.85828 | 19.49289 | 35278 ft | 474 kts | 173° |
| 2026-04-30 11:43 | 42.79432 | 19.51493 | 35273 ft | 474 kts | 173° |
| 2026-04-30 11:43 | 42.73078 | 19.53669 | 35272 ft | 474 kts | 173° |
| 2026-04-30 11:44 | 42.69884 | 19.54763 | 35033 ft | 473 kts | 174° |
| 2026-04-30 11:44 | 42.66681 | 19.55858 | 34780 ft | 473 kts | 174° |
| 2026-04-30 11:44 | 42.63492 | 19.56948 | 34536 ft | 472 kts | 174° |
| 2026-04-30 11:44 | 42.60303 | 19.58040 | 34307 ft | 473 kts | 174° |
| 2026-04-30 11:45 | 42.57113 | 19.59110 | 34022 ft | 470 kts | 177° |
| 2026-04-30 11:45 | 42.53916 | 19.59685 | 33751 ft | 458 kts | 187° |
| 2026-04-30 11:45 | 42.50777 | 19.59569 | 33406 ft | 445 kts | 197° |
| 2026-04-30 11:45 | 42.47760 | 19.58853 | 33146 ft | 438 kts | 201° |
| 2026-04-30 11:46 | 42.44778 | 19.58018 | 32853 ft | 437 kts | 201° |
| 2026-04-30 11:46 | 42.41799 | 19.57196 | 31936 ft | 440 kts | 201° |
| 2026-04-30 11:46 | 42.38795 | 19.56372 | 31028 ft | 441 kts | 201° |
| 2026-04-30 11:46 | 42.35780 | 19.55552 | 29948 ft | 444 kts | 201° |
| 2026-04-30 11:47 | 42.32747 | 19.54726 | 28815 ft | 445 kts | 200° |
| 2026-04-30 11:47 | 42.29715 | 19.53904 | 27845 ft | 443 kts | 200° |
| 2026-04-30 11:47 | 42.26722 | 19.53101 | 27270 ft | 435 kts | 200° |
| 2026-04-30 11:47 | 42.23773 | 19.52311 | 26582 ft | 429 kts | 199° |
| 2026-04-30 11:48 | 42.20858 | 19.51525 | 25920 ft | 424 kts | 199° |
| 2026-04-30 11:48 | 42.17981 | 19.50746 | 25272 ft | 420 kts | 199° |
| 2026-04-30 11:48 | 42.15130 | 19.49973 | 24642 ft | 416 kts | 199° |
| 2026-04-30 11:48 | 42.12303 | 19.49207 | 24000 ft | 413 kts | 198° |
| 2026-04-30 11:49 | 42.09499 | 19.48444 | 23335 ft | 409 kts | 198° |
| 2026-04-30 11:49 | 42.06717 | 19.47687 | 22726 ft | 404 kts | 198° |
| 2026-04-30 11:49 | 42.03978 | 19.46946 | 22150 ft | 398 kts | 198° |
| 2026-04-30 11:49 | 42.01279 | 19.46217 | 21606 ft | 393 kts | 198° |
| 2026-04-30 11:50 | 41.98566 | 19.45722 | 21057 ft | 396 kts | 189° |
| 2026-04-30 11:50 | 41.95794 | 19.45841 | 20513 ft | 402 kts | 179° |
| 2026-04-30 11:50 | 41.93027 | 19.46474 | 19952 ft | 402 kts | 176° |
| 2026-04-30 11:50 | 41.90285 | 19.47141 | 19440 ft | 399 kts | 175° |
| 2026-04-30 11:51 | 41.88475 | 19.47578 | 19097 ft | 398 kts | 175° |
| 2026-04-30 11:51 | 41.84838 | 19.48445 | 18429 ft | 395 kts | 175° |
| 2026-04-30 11:51 | 41.83049 | 19.48869 | 18060 ft | 394 kts | 175° |
| 2026-04-30 11:51 | 41.80365 | 19.49506 | 17545 ft | 390 kts | 175° |
| 2026-04-30 11:52 | 41.77707 | 19.50136 | 17050 ft | 386 kts | 175° |
| 2026-04-30 11:52 | 41.75075 | 19.50761 | 16543 ft | 383 kts | 175° |
| 2026-04-30 11:52 | 41.72454 | 19.51381 | 16013 ft | 381 kts | 174° |
| 2026-04-30 11:52 | 41.69848 | 19.51997 | 15488 ft | 379 kts | 174° |
| 2026-04-30 11:53 | 41.67254 | 19.52609 | 14962 ft | 378 kts | 174° |
| 2026-04-30 11:53 | 41.64668 | 19.53219 | 14426 ft | 378 kts | 173° |
| 2026-04-30 11:53 | 41.62068 | 19.53772 | 13866 ft | 378 kts | 175° |
| 2026-04-30 11:53 | 41.59459 | 19.54193 | 13254 ft | 376 kts | 177° |
| 2026-04-30 11:54 | 41.56867 | 19.54532 | 12678 ft | 374 kts | 178° |
| 2026-04-30 11:54 | 41.54281 | 19.54835 | 12087 ft | 372 kts | 178° |
| 2026-04-30 11:54 | 41.51714 | 19.55131 | 11502 ft | 369 kts | 178° |
| 2026-04-30 11:54 | 41.49158 | 19.55440 | 10930 ft | 367 kts | 177° |
| 2026-04-30 11:55 | 41.46663 | 19.55765 | 10764 ft | 353 kts | 176° |
| 2026-04-30 11:55 | 41.44270 | 19.56091 | 10639 ft | 338 kts | 176° |
| 2026-04-30 11:55 | 41.41973 | 19.56409 | 10516 ft | 325 kts | 176° |
| 2026-04-30 11:55 | 41.39767 | 19.56714 | 10385 ft | 312 kts | 176° |
| 2026-04-30 11:56 | 41.37646 | 19.57006 | 10205 ft | 303 kts | 177° |
| 2026-04-30 11:56 | 41.35568 | 19.57287 | 10026 ft | 298 kts | 177° |
| 2026-04-30 11:56 | 41.33503 | 19.57562 | 9832 ft | 300 kts | 177° |
| 2026-04-30 11:56 | 41.31421 | 19.57840 | 9497 ft | 299 kts | 177° |
| 2026-04-30 11:57 | 41.29366 | 19.58119 | 9320 ft | 296 kts | 177° |
| 2026-04-30 11:57 | 41.27344 | 19.58393 | 9052 ft | 296 kts | 177° |
| 2026-04-30 11:57 | 41.25301 | 19.58670 | 8672 ft | 298 kts | 177° |
| 2026-04-30 11:57 | 41.23170 | 19.58952 | 7855 ft | 316 kts | 177° |
| 2026-04-30 11:58 | 41.20967 | 19.59256 | 7356 ft | 320 kts | 174° |
| 2026-04-30 11:58 | 41.18880 | 19.60247 | 6935 ft | 323 kts | 146° |
| 2026-04-30 11:58 | 41.17419 | 19.62433 | 6485 ft | 315 kts | 115° |
| 2026-04-30 11:58 | 41.16939 | 19.65186 | 6033 ft | 302 kts | 91° |
| 2026-04-30 11:59 | 41.17095 | 19.67900 | 5627 ft | 288 kts | 79° |
| 2026-04-30 11:59 | 41.17471 | 19.70454 | 5212 ft | 275 kts | 76° |
| 2026-04-30 11:59 | 41.18073 | 19.72780 | 4818 ft | 262 kts | 53° |
| 2026-04-30 11:59 | 41.19374 | 19.74287 | 4491 ft | 241 kts | 22° |
| 2026-04-30 12:00 | 41.20962 | 19.74740 | 4174 ft | 232 kts | 353° |
| 2026-04-30 12:00 | 41.22571 | 19.74548 | 3844 ft | 232 kts | 353° |
| 2026-04-30 12:00 | 41.24177 | 19.74352 | 3522 ft | 230 kts | 351° |
| 2026-04-30 12:00 | 41.25754 | 19.74148 | 3188 ft | 223 kts | 352° |
| 2026-04-30 12:01 | 41.27269 | 19.73944 | 2910 ft | 216 kts | 351° |
| 2026-04-30 12:01 | 41.28725 | 19.73748 | 2653 ft | 202 kts | 354° |
| 2026-04-30 12:01 | 41.30070 | 19.73565 | 2377 ft | 187 kts | 356° |
| 2026-04-30 12:01 | 41.31322 | 19.73395 | 2132 ft | 176 kts | 356° |
| 2026-04-30 12:02 | 41.32491 | 19.73237 | 1926 ft | 160 kts | 357° |
| 2026-04-30 12:02 | 41.33564 | 19.73093 | 1674 ft | 150 kts | 358° |
| 2026-04-30 12:02 | 41.34588 | 19.72957 | 1435 ft | 147 kts | 357° |
| 2026-04-30 12:02 | 41.35601 | 19.72825 | 1239 ft | 145 kts | 358° |
| 2026-04-30 12:03 | 41.36594 | 19.72694 | 987 ft | 142 kts | 356° |
| 2026-04-30 12:03 | 41.38541 | 19.72438 | 546 ft | 140 kts | 356° |
| 2026-04-30 12:03 | 41.39518 | 19.72316 | 326 ft | 142 kts | 355° |
| 2026-04-30 12:04 | 41.40501 | 19.72188 | 152 ft | 142 kts | 356° |
| 2026-04-30 12:04 | 41.41359 | 19.72076 | 128 ft | 101 kts | 353° |
| 2026-04-30 12:04 | 41.41881 | 19.72005 | 123 ft | 44 kts | 355° |
| 2026-04-30 12:04 | 41.42150 | 19.71967 | 119 ft | 24 kts | 353° |
| 2026-04-30 12:05 | 41.42280 | 19.71937 | 117 ft | 12 kts | 320° |
| 2026-04-30 12:05 | 41.42285 | 19.71855 | 120 ft | 6 kts | 264° |
| 2026-04-30 12:05 | 41.42280 | 19.71806 | 120 ft | 5 kts | 263° |
| 2026-04-30 12:05 | 41.42276 | 19.71756 | 117 ft | 8 kts | 263° |
| 2026-04-30 12:06 | 41.42266 | 19.71654 | 120 ft | 13 kts | 263° |
| 2026-04-30 12:06 | 41.42249 | 19.71555 | 119 ft | 13 kts | 226° |
| 2026-04-30 12:06 | 41.42142 | 19.71555 | 119 ft | 18 kts | 174° |
| 2026-04-30 12:06 | 41.42033 | 19.71569 | 122 ft | 16 kts | 174° |
| 2026-04-30 12:07 | 41.41951 | 19.71574 | 123 ft | 9 kts | 204° |
| 2026-04-30 12:07 | 41.41947 | 19.71524 | 120 ft | 4 kts | 276° |
| 2026-04-30 12:07 | 41.41947 | 19.71519 | 121 ft | 0 kts | 265° |